sensor_id;sensor_type;location;lat;lon;timestamp;temperature;humidity
30097;DHT22;16915;51.466;3.610;2023-04-25T00:00:30;8.20;99.90
30097;DHT22;16915;51.466;3.610;2023-04-25T00:02:56;8.20;99.90
30097;DHT22;16915;51.466;3.610;2023-04-25T00:05:25;8.20;99.90
30097;DHT22;16915;51.466;3.610;2023-04-25T00:07:51;8.20;99.90
30097;DHT22;16915;51.466;3.610;2023-04-25T00:10:18;8.20;99.90
30097;DHT22;16915;51.466;3.610;2023-04-25T00:12:44;8.20;99.90
30097;DHT22;16915;51.466;3.610;2023-04-25T00:15:11;8.20;99.90
30097;DHT22;16915;51.466;3.610;2023-04-25T00:17:37;8.20;99.90
30097;DHT22;16915;51.466;3.610;2023-04-25T00:20:04;8.20;99.90
30097;DHT22;16915;51.466;3.610;2023-04-25T00:22:30;8.20;99.90
30097;DHT22;16915;51.466;3.610;2023-04-25T00:24:56;8.20;99.90
30097;DHT22;16915;51.466;3.610;2023-04-25T00:27:25;8.20;99.90
30097;DHT22;16915;51.466;3.610;2023-04-25T00:29:51;8.20;99.90
30097;DHT22;16915;51.466;3.610;2023-04-25T00:32:16;8.20;99.90
30097;DHT22;16915;51.466;3.610;2023-04-25T00:34:42;8.20;99.90
30097;DHT22;16915;51.466;3.610;2023-04-25T00:37:07;8.20;99.90
30097;DHT22;16915;51.466;3.610;2023-04-25T00:39:33;8.20;99.90
30097;DHT22;16915;51.466;3.610;2023-04-25T00:41:59;8.20;99.90
30097;DHT22;16915;51.466;3.610;2023-04-25T00:44:26;8.20;99.90
30097;DHT22;16915;51.466;3.610;2023-04-25T00:46:53;8.10;99.90
30097;DHT22;16915;51.466;3.610;2023-04-25T00:49:19;8.10;99.90
30097;DHT22;16915;51.466;3.610;2023-04-25T00:51:45;8.10;99.90
30097;DHT22;16915;51.466;3.610;2023-04-25T00:54:12;8.10;99.90
30097;DHT22;16915;51.466;3.610;2023-04-25T00:56:38;8.10;99.90
30097;DHT22;16915;51.466;3.610;2023-04-25T00:59:04;8.00;99.90
30097;DHT22;16915;51.466;3.610;2023-04-25T01:01:30;8.00;99.90
30097;DHT22;16915;51.466;3.610;2023-04-25T01:03:58;8.00;99.90
30097;DHT22;16915;51.466;3.610;2023-04-25T01:06:24;8.00;99.90
30097;DHT22;16915;51.466;3.610;2023-04-25T01:08:51;8.00;99.90
30097;DHT22;16915;51.466;3.610;2023-04-25T01:11:17;8.00;99.90
30097;DHT22;16915;51.466;3.610;2023-04-25T01:13:42;8.00;99.90
30097;DHT22;16915;51.466;3.610;2023-04-25T01:16:08;8.00;99.90
30097;DHT22;16915;51.466;3.610;2023-04-25T01:18:34;7.90;99.90
30097;DHT22;16915;51.466;3.610;2023-04-25T01:21:10;7.90;99.90
30097;DHT22;16915;51.466;3.610;2023-04-25T01:23:37;7.90;99.90
30097;DHT22;16915;51.466;3.610;2023-04-25T01:26:04;7.90;99.90
30097;DHT22;16915;51.466;3.610;2023-04-25T01:28:29;7.90;99.90
30097;DHT22;16915;51.466;3.610;2023-04-25T01:30:56;7.80;99.90
30097;DHT22;16915;51.466;3.610;2023-04-25T01:33:22;7.80;99.90
30097;DHT22;16915;51.466;3.610;2023-04-25T01:35:47;7.80;99.90
30097;DHT22;16915;51.466;3.610;2023-04-25T01:38:14;7.70;99.90
30097;DHT22;16915;51.466;3.610;2023-04-25T01:40:41;7.70;99.90
30097;DHT22;16915;51.466;3.610;2023-04-25T01:43:07;7.70;99.90
30097;DHT22;16915;51.466;3.610;2023-04-25T01:45:38;7.70;99.90
30097;DHT22;16915;51.466;3.610;2023-04-25T01:48:08;7.70;99.90
30097;DHT22;16915;51.466;3.610;2023-04-25T01:50:34;7.70;99.90
30097;DHT22;16915;51.466;3.610;2023-04-25T01:53:00;7.70;99.90
30097;DHT22;16915;51.466;3.610;2023-04-25T01:55:27;7.70;99.90
30097;DHT22;16915;51.466;3.610;2023-04-25T01:57:53;7.70;99.90
30097;DHT22;16915;51.466;3.610;2023-04-25T02:00:18;7.70;99.90
30097;DHT22;16915;51.466;3.610;2023-04-25T02:02:44;7.70;99.90
30097;DHT22;16915;51.466;3.610;2023-04-25T02:05:10;7.60;99.90
30097;DHT22;16915;51.466;3.610;2023-04-25T02:07:35;7.50;99.90
30097;DHT22;16915;51.466;3.610;2023-04-25T02:10:01;7.40;99.90
30097;DHT22;16915;51.466;3.610;2023-04-25T02:12:27;7.30;99.90
30097;DHT22;16915;51.466;3.610;2023-04-25T02:14:53;7.10;99.90
30097;DHT22;16915;51.466;3.610;2023-04-25T02:17:19;7.10;99.90
30097;DHT22;16915;51.466;3.610;2023-04-25T02:19:44;7.00;99.90
30097;DHT22;16915;51.466;3.610;2023-04-25T02:22:10;7.00;99.90
30097;DHT22;16915;51.466;3.610;2023-04-25T02:24:36;6.90;99.90
30097;DHT22;16915;51.466;3.610;2023-04-25T02:27:01;6.90;99.90
30097;DHT22;16915;51.466;3.610;2023-04-25T02:29:29;6.90;99.90
30097;DHT22;16915;51.466;3.610;2023-04-25T02:31:55;6.90;99.90
30097;DHT22;16915;51.466;3.610;2023-04-25T02:34:20;6.90;99.90
30097;DHT22;16915;51.466;3.610;2023-04-25T02:36:46;6.90;99.90
30097;DHT22;16915;51.466;3.610;2023-04-25T02:39:11;6.80;99.90
30097;DHT22;16915;51.466;3.610;2023-04-25T02:41:37;6.90;99.90
30097;DHT22;16915;51.466;3.610;2023-04-25T02:44:02;6.90;99.90
30097;DHT22;16915;51.466;3.610;2023-04-25T02:46:28;6.90;99.90
30097;DHT22;16915;51.466;3.610;2023-04-25T02:48:53;6.90;99.90
30097;DHT22;16915;51.466;3.610;2023-04-25T02:51:19;6.90;99.90
30097;DHT22;16915;51.466;3.610;2023-04-25T02:53:45;6.90;99.90
30097;DHT22;16915;51.466;3.610;2023-04-25T02:56:10;6.90;99.90
30097;DHT22;16915;51.466;3.610;2023-04-25T02:58:36;6.90;99.90
30097;DHT22;16915;51.466;3.610;2023-04-25T03:01:01;7.00;99.90
30097;DHT22;16915;51.466;3.610;2023-04-25T03:03:27;7.00;99.90
30097;DHT22;16915;51.466;3.610;2023-04-25T03:05:52;7.00;99.90
30097;DHT22;16915;51.466;3.610;2023-04-25T03:08:18;6.90;99.90
30097;DHT22;16915;51.466;3.610;2023-04-25T03:10:44;7.00;99.90
30097;DHT22;16915;51.466;3.610;2023-04-25T03:13:10;6.90;99.90
30097;DHT22;16915;51.466;3.610;2023-04-25T03:15:36;7.00;99.90
30097;DHT22;16915;51.466;3.610;2023-04-25T03:18:02;7.00;99.90
30097;DHT22;16915;51.466;3.610;2023-04-25T03:20:28;7.00;99.90
30097;DHT22;16915;51.466;3.610;2023-04-25T03:22:53;7.00;99.90
30097;DHT22;16915;51.466;3.610;2023-04-25T03:25:19;6.90;99.90
30097;DHT22;16915;51.466;3.610;2023-04-25T03:27:45;6.90;99.90
30097;DHT22;16915;51.466;3.610;2023-04-25T03:30:10;6.90;99.90
30097;DHT22;16915;51.466;3.610;2023-04-25T03:32:36;6.90;99.90
30097;DHT22;16915;51.466;3.610;2023-04-25T03:35:02;6.90;99.90
30097;DHT22;16915;51.466;3.610;2023-04-25T03:37:27;6.90;99.90
30097;DHT22;16915;51.466;3.610;2023-04-25T03:39:53;7.00;99.90
30097;DHT22;16915;51.466;3.610;2023-04-25T03:42:18;7.00;99.90
30097;DHT22;16915;51.466;3.610;2023-04-25T03:44:45;7.00;99.90
30097;DHT22;16915;51.466;3.610;2023-04-25T03:47:10;7.00;99.90
30097;DHT22;16915;51.466;3.610;2023-04-25T03:49:36;7.00;99.90
30097;DHT22;16915;51.466;3.610;2023-04-25T03:52:03;7.00;99.90
30097;DHT22;16915;51.466;3.610;2023-04-25T03:54:28;7.10;99.90
30097;DHT22;16915;51.466;3.610;2023-04-25T03:56:54;7.10;99.90
30097;DHT22;16915;51.466;3.610;2023-04-25T03:59:19;7.20;99.90
30097;DHT22;16915;51.466;3.610;2023-04-25T04:01:45;7.00;99.90
30097;DHT22;16915;51.466;3.610;2023-04-25T04:04:10;7.10;99.90
30097;DHT22;16915;51.466;3.610;2023-04-25T04:06:36;7.10;99.90
30097;DHT22;16915;51.466;3.610;2023-04-25T04:09:02;7.10;99.90
30097;DHT22;16915;51.466;3.610;2023-04-25T04:11:28;7.10;99.90
30097;DHT22;16915;51.466;3.610;2023-04-25T04:13:54;7.10;99.90
30097;DHT22;16915;51.466;3.610;2023-04-25T04:16:20;7.00;99.90
30097;DHT22;16915;51.466;3.610;2023-04-25T04:18:45;7.10;99.90
30097;DHT22;16915;51.466;3.610;2023-04-25T04:21:11;7.10;99.90
30097;DHT22;16915;51.466;3.610;2023-04-25T04:23:37;7.00;99.90
30097;DHT22;16915;51.466;3.610;2023-04-25T04:26:02;7.10;99.90
30097;DHT22;16915;51.466;3.610;2023-04-25T04:28:28;7.10;99.90
30097;DHT22;16915;51.466;3.610;2023-04-25T04:30:54;7.00;99.90
30097;DHT22;16915;51.466;3.610;2023-04-25T04:33:20;7.00;99.90
30097;DHT22;16915;51.466;3.610;2023-04-25T04:35:46;7.00;99.90
30097;DHT22;16915;51.466;3.610;2023-04-25T04:38:13;7.00;99.90
30097;DHT22;16915;51.466;3.610;2023-04-25T04:40:40;7.00;99.90
30097;DHT22;16915;51.466;3.610;2023-04-25T04:43:08;7.00;99.90
30097;DHT22;16915;51.466;3.610;2023-04-25T04:45:36;7.00;99.90
30097;DHT22;16915;51.466;3.610;2023-04-25T04:48:05;7.00;99.90
30097;DHT22;16915;51.466;3.610;2023-04-25T04:50:30;7.10;99.90
30097;DHT22;16915;51.466;3.610;2023-04-25T04:52:57;7.10;99.90
30097;DHT22;16915;51.466;3.610;2023-04-25T04:55:23;7.10;99.90
30097;DHT22;16915;51.466;3.610;2023-04-25T04:57:49;7.10;99.90
30097;DHT22;16915;51.466;3.610;2023-04-25T05:00:14;7.00;99.90
30097;DHT22;16915;51.466;3.610;2023-04-25T05:02:41;7.10;99.90
30097;DHT22;16915;51.466;3.610;2023-04-25T05:05:06;7.00;99.90
30097;DHT22;16915;51.466;3.610;2023-04-25T05:07:33;7.10;99.90
30097;DHT22;16915;51.466;3.610;2023-04-25T05:09:59;7.00;99.90
30097;DHT22;16915;51.466;3.610;2023-04-25T05:12:24;7.10;99.90
30097;DHT22;16915;51.466;3.610;2023-04-25T05:14:50;7.10;99.90
30097;DHT22;16915;51.466;3.610;2023-04-25T05:17:15;7.10;99.90
30097;DHT22;16915;51.466;3.610;2023-04-25T05:19:41;7.10;99.90
30097;DHT22;16915;51.466;3.610;2023-04-25T05:22:07;7.10;99.90
30097;DHT22;16915;51.466;3.610;2023-04-25T05:24:32;7.20;99.90
30097;DHT22;16915;51.466;3.610;2023-04-25T05:26:58;7.20;99.90
30097;DHT22;16915;51.466;3.610;2023-04-25T05:29:23;7.20;99.90
30097;DHT22;16915;51.466;3.610;2023-04-25T05:31:49;7.30;99.90
30097;DHT22;16915;51.466;3.610;2023-04-25T05:34:14;7.40;99.90
30097;DHT22;16915;51.466;3.610;2023-04-25T05:36:41;7.50;99.90
30097;DHT22;16915;51.466;3.610;2023-04-25T05:39:07;7.50;99.90
30097;DHT22;16915;51.466;3.610;2023-04-25T05:41:34;7.60;99.90
30097;DHT22;16915;51.466;3.610;2023-04-25T05:43:59;7.50;99.90
30097;DHT22;16915;51.466;3.610;2023-04-25T05:46:25;7.60;99.90
30097;DHT22;16915;51.466;3.610;2023-04-25T05:48:50;7.60;99.90
30097;DHT22;16915;51.466;3.610;2023-04-25T05:51:16;7.60;99.90
30097;DHT22;16915;51.466;3.610;2023-04-25T05:53:43;7.60;99.90
30097;DHT22;16915;51.466;3.610;2023-04-25T05:56:09;7.50;99.90
30097;DHT22;16915;51.466;3.610;2023-04-25T05:58:34;7.50;99.90
30097;DHT22;16915;51.466;3.610;2023-04-25T06:01:02;7.40;99.90
30097;DHT22;16915;51.466;3.610;2023-04-25T06:03:28;7.30;99.90
30097;DHT22;16915;51.466;3.610;2023-04-25T06:05:53;7.30;99.90
30097;DHT22;16915;51.466;3.610;2023-04-25T06:08:19;7.40;99.90
30097;DHT22;16915;51.466;3.610;2023-04-25T06:10:44;7.40;99.90
30097;DHT22;16915;51.466;3.610;2023-04-25T06:13:10;7.50;99.90
30097;DHT22;16915;51.466;3.610;2023-04-25T06:15:36;7.70;99.90
30097;DHT22;16915;51.466;3.610;2023-04-25T06:18:01;7.90;99.90
30097;DHT22;16915;51.466;3.610;2023-04-25T06:20:27;8.00;99.90
30097;DHT22;16915;51.466;3.610;2023-04-25T06:22:52;8.20;99.90
30097;DHT22;16915;51.466;3.610;2023-04-25T06:25:18;8.40;99.90
30097;DHT22;16915;51.466;3.610;2023-04-25T06:27:43;8.70;99.90
30097;DHT22;16915;51.466;3.610;2023-04-25T06:30:09;8.70;99.90
30097;DHT22;16915;51.466;3.610;2023-04-25T06:32:36;8.60;99.90
30097;DHT22;16915;51.466;3.610;2023-04-25T06:35:02;8.40;99.90
30097;DHT22;16915;51.466;3.610;2023-04-25T06:37:28;8.30;99.90
30097;DHT22;16915;51.466;3.610;2023-04-25T06:39:54;8.00;99.90
30097;DHT22;16915;51.466;3.610;2023-04-25T06:42:20;7.80;99.90
30097;DHT22;16915;51.466;3.610;2023-04-25T06:44:45;7.70;99.90
30097;DHT22;16915;51.466;3.610;2023-04-25T06:47:11;7.60;99.90
30097;DHT22;16915;51.466;3.610;2023-04-25T06:49:36;7.60;99.90
30097;DHT22;16915;51.466;3.610;2023-04-25T06:52:02;7.60;99.90
30097;DHT22;16915;51.466;3.610;2023-04-25T06:54:28;7.60;99.90
30097;DHT22;16915;51.466;3.610;2023-04-25T06:56:55;7.60;99.90
30097;DHT22;16915;51.466;3.610;2023-04-25T06:59:21;7.60;99.90
30097;DHT22;16915;51.466;3.610;2023-04-25T07:01:47;7.60;99.90
30097;DHT22;16915;51.466;3.610;2023-04-25T07:04:12;7.50;99.90
30097;DHT22;16915;51.466;3.610;2023-04-25T07:06:38;7.60;99.90
30097;DHT22;16915;51.466;3.610;2023-04-25T07:09:08;7.60;99.90
30097;DHT22;16915;51.466;3.610;2023-04-25T07:11:35;7.80;99.90
30097;DHT22;16915;51.466;3.610;2023-04-25T07:14:01;7.90;99.90
30097;DHT22;16915;51.466;3.610;2023-04-25T07:16:26;8.00;99.90
30097;DHT22;16915;51.466;3.610;2023-04-25T07:18:52;8.30;99.90
30097;DHT22;16915;51.466;3.610;2023-04-25T07:21:17;8.60;99.90
30097;DHT22;16915;51.466;3.610;2023-04-25T07:23:43;8.90;99.90
30097;DHT22;16915;51.466;3.610;2023-04-25T07:26:09;9.20;99.90
30097;DHT22;16915;51.466;3.610;2023-04-25T07:28:34;9.40;99.90
30097;DHT22;16915;51.466;3.610;2023-04-25T07:31:00;9.50;99.90
30097;DHT22;16915;51.466;3.610;2023-04-25T07:33:25;9.60;99.90
30097;DHT22;16915;51.466;3.610;2023-04-25T07:35:52;9.60;99.90
30097;DHT22;16915;51.466;3.610;2023-04-25T07:38:17;9.50;99.90
30097;DHT22;16915;51.466;3.610;2023-04-25T07:40:43;9.40;99.90
30097;DHT22;16915;51.466;3.610;2023-04-25T07:43:08;9.30;99.90
30097;DHT22;16915;51.466;3.610;2023-04-25T07:45:34;9.20;99.90
30097;DHT22;16915;51.466;3.610;2023-04-25T07:48:00;9.30;99.90
30097;DHT22;16915;51.466;3.610;2023-04-25T07:50:26;9.40;99.90
30097;DHT22;16915;51.466;3.610;2023-04-25T07:52:51;9.50;99.90
30097;DHT22;16915;51.466;3.610;2023-04-25T07:55:17;9.60;99.90
30097;DHT22;16915;51.466;3.610;2023-04-25T07:57:42;9.50;99.90
30097;DHT22;16915;51.466;3.610;2023-04-25T08:00:08;9.30;99.90
30097;DHT22;16915;51.466;3.610;2023-04-25T08:02:35;9.10;99.90
30097;DHT22;16915;51.466;3.610;2023-04-25T08:05:02;8.80;99.90
30097;DHT22;16915;51.466;3.610;2023-04-25T08:07:27;8.50;99.90
30097;DHT22;16915;51.466;3.610;2023-04-25T08:09:54;8.20;99.90
30097;DHT22;16915;51.466;3.610;2023-04-25T08:12:20;8.00;99.90
30097;DHT22;16915;51.466;3.610;2023-04-25T08:14:45;7.90;99.90
30097;DHT22;16915;51.466;3.610;2023-04-25T08:17:11;7.80;99.90
30097;DHT22;16915;51.466;3.610;2023-04-25T08:19:36;7.90;99.90
30097;DHT22;16915;51.466;3.610;2023-04-25T08:22:03;8.00;99.90
30097;DHT22;16915;51.466;3.610;2023-04-25T08:24:28;8.10;99.90
30097;DHT22;16915;51.466;3.610;2023-04-25T08:26:54;8.30;99.90
30097;DHT22;16915;51.466;3.610;2023-04-25T08:29:19;8.60;99.90
30097;DHT22;16915;51.466;3.610;2023-04-25T08:31:45;8.90;99.90
30097;DHT22;16915;51.466;3.610;2023-04-25T08:34:10;9.20;99.90
30097;DHT22;16915;51.466;3.610;2023-04-25T08:36:36;9.50;99.90
30097;DHT22;16915;51.466;3.610;2023-04-25T08:39:02;9.70;99.90
30097;DHT22;16915;51.466;3.610;2023-04-25T08:41:28;9.80;99.90
30097;DHT22;16915;51.466;3.610;2023-04-25T08:43:55;9.90;99.90
30097;DHT22;16915;51.466;3.610;2023-04-25T08:46:21;10.20;99.90
30097;DHT22;16915;51.466;3.610;2023-04-25T08:48:49;10.20;99.90
30097;DHT22;16915;51.466;3.610;2023-04-25T08:51:22;10.20;99.90
30097;DHT22;16915;51.466;3.610;2023-04-25T08:53:51;10.40;99.90
30097;DHT22;16915;51.466;3.610;2023-04-25T08:56:18;10.70;99.90
30097;DHT22;16915;51.466;3.610;2023-04-25T08:58:48;10.70;99.90
30097;DHT22;16915;51.466;3.610;2023-04-25T09:01:14;10.50;99.90
30097;DHT22;16915;51.466;3.610;2023-04-25T09:03:40;10.30;99.90
30097;DHT22;16915;51.466;3.610;2023-04-25T09:06:07;10.20;99.90
30097;DHT22;16915;51.466;3.610;2023-04-25T09:08:33;10.10;99.90
30097;DHT22;16915;51.466;3.610;2023-04-25T09:10:59;10.00;99.90
30097;DHT22;16915;51.466;3.610;2023-04-25T09:13:26;9.80;99.90
30097;DHT22;16915;51.466;3.610;2023-04-25T09:15:56;9.80;99.90
30097;DHT22;16915;51.466;3.610;2023-04-25T09:18:27;9.90;99.90
30097;DHT22;16915;51.466;3.610;2023-04-25T09:20:54;10.10;99.90
30097;DHT22;16915;51.466;3.610;2023-04-25T09:23:21;10.20;99.90
30097;DHT22;16915;51.466;3.610;2023-04-25T09:25:48;10.30;99.90
30097;DHT22;16915;51.466;3.610;2023-04-25T09:28:14;10.50;99.90
30097;DHT22;16915;51.466;3.610;2023-04-25T09:30:40;10.60;99.90
30097;DHT22;16915;51.466;3.610;2023-04-25T09:33:12;10.60;99.90
30097;DHT22;16915;51.466;3.610;2023-04-25T09:35:40;10.60;99.90
30097;DHT22;16915;51.466;3.610;2023-04-25T09:38:13;10.60;99.90
30097;DHT22;16915;51.466;3.610;2023-04-25T09:40:44;10.80;99.90
30097;DHT22;16915;51.466;3.610;2023-04-25T09:43:20;11.10;99.90
30097;DHT22;16915;51.466;3.610;2023-04-25T09:45:46;11.40;99.90
30097;DHT22;16915;51.466;3.610;2023-04-25T09:48:20;11.60;99.90
30097;DHT22;16915;51.466;3.610;2023-04-25T09:51:10;11.70;99.90
30097;DHT22;16915;51.466;3.610;2023-04-25T09:53:38;11.80;99.90
30097;DHT22;16915;51.466;3.610;2023-04-25T09:56:05;11.80;99.90
30097;DHT22;16915;51.466;3.610;2023-04-25T09:58:35;11.90;99.90
30097;DHT22;16915;51.466;3.610;2023-04-25T10:01:03;11.90;99.90
30097;DHT22;16915;51.466;3.610;2023-04-25T10:03:31;11.60;99.90
30097;DHT22;16915;51.466;3.610;2023-04-25T10:06:01;11.20;99.90
30097;DHT22;16915;51.466;3.610;2023-04-25T10:08:37;10.80;99.90
30097;DHT22;16915;51.466;3.610;2023-04-25T10:11:07;10.60;99.90
30097;DHT22;16915;51.466;3.610;2023-04-25T10:13:34;10.50;99.90
30097;DHT22;16915;51.466;3.610;2023-04-25T10:16:02;10.90;99.90
30097;DHT22;16915;51.466;3.610;2023-04-25T10:18:28;11.60;99.90
30097;DHT22;16915;51.466;3.610;2023-04-25T10:20:56;12.20;99.90
30097;DHT22;16915;51.466;3.610;2023-04-25T10:23:23;12.70;99.90
30097;DHT22;16915;51.466;3.610;2023-04-25T10:25:50;13.30;99.90
30097;DHT22;16915;51.466;3.610;2023-04-25T10:28:17;13.80;99.90
30097;DHT22;16915;51.466;3.610;2023-04-25T10:31:03;13.70;99.90
30097;DHT22;16915;51.466;3.610;2023-04-25T10:33:37;13.30;99.90
30097;DHT22;16915;51.466;3.610;2023-04-25T10:38:39;12.70;99.90
30097;DHT22;16915;51.466;3.610;2023-04-25T10:41:08;13.20;99.90
30097;DHT22;16915;51.466;3.610;2023-04-25T10:43:42;14.10;99.90
30097;DHT22;16915;51.466;3.610;2023-04-25T10:46:17;15.10;99.90
30097;DHT22;16915;51.466;3.610;2023-04-25T10:48:49;15.20;99.90
30097;DHT22;16915;51.466;3.610;2023-04-25T10:51:23;14.80;99.90
30097;DHT22;16915;51.466;3.610;2023-04-25T10:56:25;15.20;99.90
30097;DHT22;16915;51.466;3.610;2023-04-25T10:58:51;15.50;99.90
30097;DHT22;16915;51.466;3.610;2023-04-25T11:01:21;15.80;99.90
30097;DHT22;16915;51.466;3.610;2023-04-25T11:03:49;16.30;99.90
30097;DHT22;16915;51.466;3.610;2023-04-25T11:06:43;16.40;99.90
30097;DHT22;16915;51.466;3.610;2023-04-25T11:09:12;16.10;99.90
30097;DHT22;16915;51.466;3.610;2023-04-25T11:11:38;15.70;99.90
30097;DHT22;16915;51.466;3.610;2023-04-25T11:14:04;15.00;99.90
30097;DHT22;16915;51.466;3.610;2023-04-25T11:16:29;14.70;99.90
30097;DHT22;16915;51.466;3.610;2023-04-25T11:18:57;15.10;99.90
30097;DHT22;16915;51.466;3.610;2023-04-25T11:21:23;15.60;99.90
30097;DHT22;16915;51.466;3.610;2023-04-25T11:23:49;16.00;99.90
30097;DHT22;16915;51.466;3.610;2023-04-25T11:26:15;15.80;99.90
30097;DHT22;16915;51.466;3.610;2023-04-25T11:28:40;16.00;99.90
30097;DHT22;16915;51.466;3.610;2023-04-25T11:31:10;16.70;99.80
30097;DHT22;16915;51.466;3.610;2023-04-25T11:33:35;17.20;99.70
30097;DHT22;16915;51.466;3.610;2023-04-25T11:36:01;17.70;99.30
30097;DHT22;16915;51.466;3.610;2023-04-25T11:38:28;17.50;99.90
30097;DHT22;16915;51.466;3.610;2023-04-25T11:40:53;17.00;99.90
30097;DHT22;16915;51.466;3.610;2023-04-25T11:43:22;16.40;99.90
30097;DHT22;16915;51.466;3.610;2023-04-25T11:45:49;16.00;99.90
30097;DHT22;16915;51.466;3.610;2023-04-25T11:48:16;15.60;99.90
30097;DHT22;16915;51.466;3.610;2023-04-25T11:50:42;15.70;99.90
30097;DHT22;16915;51.466;3.610;2023-04-25T11:53:07;15.90;99.90
30097;DHT22;16915;51.466;3.610;2023-04-25T11:55:34;16.30;99.90
30097;DHT22;16915;51.466;3.610;2023-04-25T11:58:00;16.30;99.90
30097;DHT22;16915;51.466;3.610;2023-04-25T12:00:27;15.90;99.90
30097;DHT22;16915;51.466;3.610;2023-04-25T12:02:53;15.70;99.90
30097;DHT22;16915;51.466;3.610;2023-04-25T12:05:20;15.60;99.90
30097;DHT22;16915;51.466;3.610;2023-04-25T12:07:46;15.30;99.90
30097;DHT22;16915;51.466;3.610;2023-04-25T12:10:14;15.00;99.90
30097;DHT22;16915;51.466;3.610;2023-04-25T12:12:44;15.30;99.90
30097;DHT22;16915;51.466;3.610;2023-04-25T12:15:31;15.80;99.90
30097;DHT22;16915;51.466;3.610;2023-04-25T12:17:56;16.50;99.90
30097;DHT22;16915;51.466;3.610;2023-04-25T12:20:24;17.40;99.90
30097;DHT22;16915;51.466;3.610;2023-04-25T12:22:51;18.00;97.80
30097;DHT22;16915;51.466;3.610;2023-04-25T12:25:38;17.70;97.00
30097;DHT22;16915;51.466;3.610;2023-04-25T12:28:21;16.80;98.20
30097;DHT22;16915;51.466;3.610;2023-04-25T12:31:07;15.80;98.50
30097;DHT22;16915;51.466;3.610;2023-04-25T12:33:36;15.00;99.50
30097;DHT22;16915;51.466;3.610;2023-04-25T12:36:04;15.10;99.90
30097;DHT22;16915;51.466;3.610;2023-04-25T12:38:38;15.40;99.50
30097;DHT22;16915;51.466;3.610;2023-04-25T12:41:04;16.40;99.00
30097;DHT22;16915;51.466;3.610;2023-04-25T12:43:30;17.70;97.10
30097;DHT22;16915;51.466;3.610;2023-04-25T12:45:56;18.60;95.00
30097;DHT22;16915;51.466;3.610;2023-04-25T12:48:23;18.30;93.90
30097;DHT22;16915;51.466;3.610;2023-04-25T12:50:49;18.10;95.20
30097;DHT22;16915;51.466;3.610;2023-04-25T12:53:16;18.40;94.80
30097;DHT22;16915;51.466;3.610;2023-04-25T12:55:42;18.60;93.00
30097;DHT22;16915;51.466;3.610;2023-04-25T12:58:07;19.00;92.40
30097;DHT22;16915;51.466;3.610;2023-04-25T13:00:33;19.50;91.50
30097;DHT22;16915;51.466;3.610;2023-04-25T13:02:58;19.30;91.50
30097;DHT22;16915;51.466;3.610;2023-04-25T13:05:25;19.10;94.30
30097;DHT22;16915;51.466;3.610;2023-04-25T13:07:50;19.50;94.30
30097;DHT22;16915;51.466;3.610;2023-04-25T13:10:17;20.00;93.90
30097;DHT22;16915;51.466;3.610;2023-04-25T13:12:43;20.40;92.50
30097;DHT22;16915;51.466;3.610;2023-04-25T13:15:09;19.40;91.70
30097;DHT22;16915;51.466;3.610;2023-04-25T13:17:37;18.60;93.10
30097;DHT22;16915;51.466;3.610;2023-04-25T13:20:04;17.80;93.60
30097;DHT22;16915;51.466;3.610;2023-04-25T13:22:34;16.70;95.70
30097;DHT22;16915;51.466;3.610;2023-04-25T13:25:02;17.00;96.20
30097;DHT22;16915;51.466;3.610;2023-04-25T13:27:28;18.40;94.60
30097;DHT22;16915;51.466;3.610;2023-04-25T13:29:54;19.60;93.70
30097;DHT22;16915;51.466;3.610;2023-04-25T13:32:19;20.50;92.00
30097;DHT22;16915;51.466;3.610;2023-04-25T13:34:45;20.30;92.50
30097;DHT22;16915;51.466;3.610;2023-04-25T13:37:11;20.40;93.20
30097;DHT22;16915;51.466;3.610;2023-04-25T13:39:36;21.00;92.50
30097;DHT22;16915;51.466;3.610;2023-04-25T13:42:02;21.10;91.70
30097;DHT22;16915;51.466;3.610;2023-04-25T13:44:28;20.70;93.30
30097;DHT22;16915;51.466;3.610;2023-04-25T13:46:54;20.70;92.70
30097;DHT22;16915;51.466;3.610;2023-04-25T13:49:19;19.90;91.80
30097;DHT22;16915;51.466;3.610;2023-04-25T13:51:45;18.60;93.50
30097;DHT22;16915;51.466;3.610;2023-04-25T13:54:11;17.80;95.50
30097;DHT22;16915;51.466;3.610;2023-04-25T13:56:36;18.50;95.60
30097;DHT22;16915;51.466;3.610;2023-04-25T13:59:02;19.10;93.90
30097;DHT22;16915;51.466;3.610;2023-04-25T14:01:28;18.40;94.30
30097;DHT22;16915;51.466;3.610;2023-04-25T14:03:55;17.50;95.60
30097;DHT22;16915;51.466;3.610;2023-04-25T14:06:21;17.70;97.40
30097;DHT22;16915;51.466;3.610;2023-04-25T14:08:49;18.20;94.60
30097;DHT22;16915;51.466;3.610;2023-04-25T14:11:15;17.90;94.80
30097;DHT22;16915;51.466;3.610;2023-04-25T14:13:43;18.10;94.20
30097;DHT22;16915;51.466;3.610;2023-04-25T14:16:09;17.40;94.20
30097;DHT22;16915;51.466;3.610;2023-04-25T14:18:34;17.50;95.30
30097;DHT22;16915;51.466;3.610;2023-04-25T14:21:00;18.10;94.30
30097;DHT22;16915;51.466;3.610;2023-04-25T14:23:26;18.90;94.20
30097;DHT22;16915;51.466;3.610;2023-04-25T14:25:51;19.70;92.60
30097;DHT22;16915;51.466;3.610;2023-04-25T14:28:17;20.40;91.30
30097;DHT22;16915;51.466;3.610;2023-04-25T14:30:43;19.90;92.70
30097;DHT22;16915;51.466;3.610;2023-04-25T14:33:08;19.90;92.50
30097;DHT22;16915;51.466;3.610;2023-04-25T14:35:35;19.40;92.00
30097;DHT22;16915;51.466;3.610;2023-04-25T14:38:00;19.40;91.90
30097;DHT22;16915;51.466;3.610;2023-04-25T14:40:26;18.90;92.40
30097;DHT22;16915;51.466;3.610;2023-04-25T14:42:52;17.90;92.90
30097;DHT22;16915;51.466;3.610;2023-04-25T14:45:17;17.40;94.40
30097;DHT22;16915;51.466;3.610;2023-04-25T14:47:43;17.90;93.30
30097;DHT22;16915;51.466;3.610;2023-04-25T14:50:09;17.60;92.20
30097;DHT22;16915;51.466;3.610;2023-04-25T14:52:35;16.70;92.80
30097;DHT22;16915;51.466;3.610;2023-04-25T14:55:00;16.10;94.40
30097;DHT22;16915;51.466;3.610;2023-04-25T14:57:33;16.80;94.80
30097;DHT22;16915;51.466;3.610;2023-04-25T14:59:59;17.50;93.00
30097;DHT22;16915;51.466;3.610;2023-04-25T15:02:25;17.90;92.60
30097;DHT22;16915;51.466;3.610;2023-04-25T15:04:51;18.50;93.00
30097;DHT22;16915;51.466;3.610;2023-04-25T15:07:17;18.60;92.80
30097;DHT22;16915;51.466;3.610;2023-04-25T15:09:42;17.90;92.40
30097;DHT22;16915;51.466;3.610;2023-04-25T15:12:08;17.00;92.50
30097;DHT22;16915;51.466;3.610;2023-04-25T15:14:34;16.20;93.90
30097;DHT22;16915;51.466;3.610;2023-04-25T15:17:00;15.80;94.60
30097;DHT22;16915;51.466;3.610;2023-04-25T15:19:26;15.70;94.80
30097;DHT22;16915;51.466;3.610;2023-04-25T15:21:51;16.30;93.30
30097;DHT22;16915;51.466;3.610;2023-04-25T15:24:17;17.20;92.90
30097;DHT22;16915;51.466;3.610;2023-04-25T15:26:44;18.00;93.10
30097;DHT22;16915;51.466;3.610;2023-04-25T15:29:11;18.90;91.60
30097;DHT22;16915;51.466;3.610;2023-04-25T15:31:37;18.70;91.70
30097;DHT22;16915;51.466;3.610;2023-04-25T15:34:03;18.30;92.20
30097;DHT22;16915;51.466;3.610;2023-04-25T15:36:28;18.50;92.40
30097;DHT22;16915;51.466;3.610;2023-04-25T15:38:54;19.00;92.10
30097;DHT22;16915;51.466;3.610;2023-04-25T15:41:19;19.40;91.80